ンジャメナ の空港の天気 - METARとTAF

ンジャメナ国際空港 ( FTTJ / NDJ ) - チャド ンジャメナ
飛行場実況気象(Metar)
観測時間11/14 18:00 WAT (11/14 17:00 UTC)
風向・風速西北西 3m/s
視程10km以上
天気現象
なし
気温31℃
湿度18%
気圧1007hPa
METARFTTJ 141700Z 30006KT CAVOK 31/04 Q1007 NOSIG
過去の天気等 Google飛行場航空写真 Wunderground天気予報

過去48時間のMETAR

飛行場予報(TAF)
発表時間: 11/14 18:00 WAT (11/14 17:00 UTC)
予報対象時間: 14日19時 WAT ~ 16日1時 WAT
風向・風速北北西 4m/s
視程6000m
なし
15日6時 WAT ~ 15日10時 WAT に一時的に
視程4000m
天気現象風塵
15日8時 WAT ~ 15日9時 WAT に徐々に
風向・風速北東 5m/s
TAF FTTJ 141700Z 1418/1524 34008KT 6000 NSC
TEMPO 1505/1509 4000 DU
BECMG 1507/1508 04010KT